Portada
METAR-TAF:

METAR-TAF

Aeroports :

San Antonio del Táchira, Veneçuela

latitud: 07-51N, longitud: 072-27W, altitud: 377 m

METAR: manca

Hora: 08:54 (12:54 UTC)

Pronòstic

L'informe es va fer fa 2 hores i 54 minuts, a les 10:00 UTC
Pronòstic vàlid del 21 a les 12 UTC al 22 a les 12 UTC
Vent kt del Nord
Visibilitat 10 km o més
Cel ennuvolat a una alçada de 2000 ft
Evolucionant progressivament
l' 21 a les 14 UTC al 21 a les 18 UTC
Vent 6 kt del Sud/Sud-Est
Núvols disperses a una alçada de 2000 ft
Núvols disperses a una alçada de 9000 ft

TAF: SVSA 211000Z 2112/2212 00000KT 9999 BKN020 TX32/18Z TN22/08Z BECMG 2114/2118 15006KT SCT020 SCT090

Observacions i pronòstics meteorològics de més de 4000 aeroports (METAR i TAF).

Les estacions disponibles són els punts grocs i vermells al mapa.

Posi el ratolí al punt desitjat per veure el nom de l'estació.

Feu clic per veure les observacions i els pronòstics meteorològics.

Per canviar el mapa: feu clic els botons verds amb una creu de color negre per apropar; al botó verd amb un guió per allunyar la imatge; o en les fletxes verdes per a mapes adjacents.


METAR-TAF: